sensor_id;sensor_type;location;lat;lon;timestamp;P1;durP1;ratioP1;P2;durP2;ratioP2
71042;SDS011;58696;52.134;5.500;2022-08-19T00:00:30;4.00;;;2.45;;
71042;SDS011;58696;52.134;5.500;2022-08-19T00:02:57;2.20;;;2.10;;
71042;SDS011;58696;52.134;5.500;2022-08-19T00:05:24;2.30;;;2.10;;
71042;SDS011;58696;52.134;5.500;2022-08-19T00:07:51;2.75;;;2.55;;
71042;SDS011;58696;52.134;5.500;2022-08-19T00:10:20;4.10;;;2.15;;
71042;SDS011;58696;52.134;5.500;2022-08-19T00:12:47;2.10;;;2.00;;
71042;SDS011;58696;52.134;5.500;2022-08-19T00:15:15;1.98;;;1.88;;
71042;SDS011;58696;52.134;5.500;2022-08-19T00:17:45;2.47;;;2.30;;
71042;SDS011;58696;52.134;5.500;2022-08-19T00:20:16;2.40;;;2.30;;
71042;SDS011;58696;52.134;5.500;2022-08-19T00:22:46;2.63;;;2.42;;
71042;SDS011;58696;52.134;5.500;2022-08-19T00:25:16;2.38;;;2.17;;
71042;SDS011;58696;52.134;5.500;2022-08-19T00:27:43;3.22;;;2.45;;
71042;SDS011;58696;52.134;5.500;2022-08-19T00:30:10;2.67;;;1.63;;
71042;SDS011;58696;52.134;5.500;2022-08-19T00:32:37;2.65;;;2.15;;
71042;SDS011;58696;52.134;5.500;2022-08-19T00:35:05;2.53;;;2.30;;
71042;SDS011;58696;52.134;5.500;2022-08-19T00:37:35;2.70;;;2.50;;
71042;SDS011;58696;52.134;5.500;2022-08-19T00:40:03;4.57;;;2.60;;
71042;SDS011;58696;52.134;5.500;2022-08-19T00:42:32;3.28;;;2.90;;
71042;SDS011;58696;52.134;5.500;2022-08-19T00:44:59;3.00;;;2.80;;
71042;SDS011;58696;52.134;5.500;2022-08-19T00:47:26;5.10;;;2.80;;
71042;SDS011;58696;52.134;5.500;2022-08-19T00:49:56;5.50;;;2.72;;
71042;SDS011;58696;52.134;5.500;2022-08-19T00:52:28;3.10;;;2.90;;
71042;SDS011;58696;52.134;5.500;2022-08-19T00:54:58;4.47;;;2.58;;
71042;SDS011;58696;52.134;5.500;2022-08-19T00:57:28;3.55;;;2.33;;
71042;SDS011;58696;52.134;5.500;2022-08-19T00:59:59;2.00;;;1.90;;
71042;SDS011;58696;52.134;5.500;2022-08-19T01:02:29;2.60;;;2.40;;
71042;SDS011;58696;52.134;5.500;2022-08-19T01:05:03;1.98;;;1.88;;
71042;SDS011;58696;52.134;5.500;2022-08-19T01:07:33;1.83;;;1.73;;
71042;SDS011;58696;52.134;5.500;2022-08-19T01:10:03;1.80;;;1.70;;
71042;SDS011;58696;52.134;5.500;2022-08-19T01:12:32;1.98;;;1.88;;
71042;SDS011;58696;52.134;5.500;2022-08-19T01:15:03;2.10;;;1.90;;
71042;SDS011;58696;52.134;5.500;2022-08-19T01:17:31;1.98;;;1.88;;
71042;SDS011;58696;52.134;5.500;2022-08-19T01:20:02;2.20;;;2.10;;
71042;SDS011;58696;52.134;5.500;2022-08-19T01:22:32;2.50;;;2.30;;
71042;SDS011;58696;52.134;5.500;2022-08-19T01:25:04;2.63;;;2.10;;
71042;SDS011;58696;52.134;5.500;2022-08-19T01:30:13;2.90;;;2.70;;
71042;SDS011;58696;52.134;5.500;2022-08-19T01:32:41;3.90;;;3.35;;
71042;SDS011;58696;52.134;5.500;2022-08-19T01:35:10;3.50;;;3.20;;
71042;SDS011;58696;52.134;5.500;2022-08-19T01:37:41;5.93;;;4.05;;
71042;SDS011;58696;52.134;5.500;2022-08-19T01:40:10;5.63;;;4.75;;
71042;SDS011;58696;52.134;5.500;2022-08-19T01:42:37;6.60;;;5.07;;
71042;SDS011;58696;52.134;5.500;2022-08-19T01:45:04;6.05;;;4.72;;
71042;SDS011;58696;52.134;5.500;2022-08-19T01:47:37;4.78;;;4.38;;
71042;SDS011;58696;52.134;5.500;2022-08-19T01:50:04;5.35;;;4.55;;
71042;SDS011;58696;52.134;5.500;2022-08-19T01:52:34;9.57;;;5.00;;
71042;SDS011;58696;52.134;5.500;2022-08-19T01:55:03;5.72;;;5.15;;
71042;SDS011;58696;52.134;5.500;2022-08-19T01:57:33;6.07;;;4.50;;
71042;SDS011;58696;52.134;5.500;2022-08-19T02:00:01;4.00;;;3.70;;
71042;SDS011;58696;52.134;5.500;2022-08-19T02:02:31;3.38;;;3.08;;
71042;SDS011;58696;52.134;5.500;2022-08-19T02:04:58;3.87;;;3.67;;
71042;SDS011;58696;52.134;5.500;2022-08-19T02:07:25;6.68;;;3.80;;
71042;SDS011;58696;52.134;5.500;2022-08-19T02:09:52;6.83;;;3.40;;
71042;SDS011;58696;52.134;5.500;2022-08-19T02:12:19;3.45;;;3.15;;
71042;SDS011;58696;52.134;5.500;2022-08-19T02:14:47;3.53;;;3.03;;
71042;SDS011;58696;52.134;5.500;2022-08-19T02:17:13;2.60;;;2.40;;
71042;SDS011;58696;52.134;5.500;2022-08-19T02:19:41;6.43;;;2.42;;
71042;SDS011;58696;52.134;5.500;2022-08-19T02:22:08;2.73;;;2.53;;
71042;SDS011;58696;52.134;5.500;2022-08-19T02:24:34;11.48;;;2.92;;
71042;SDS011;58696;52.134;5.500;2022-08-19T02:27:04;4.70;;;3.03;;
71042;SDS011;58696;52.134;5.500;2022-08-19T02:29:32;3.97;;;2.25;;
71042;SDS011;58696;52.134;5.500;2022-08-19T02:31:58;2.90;;;2.00;;
71042;SDS011;58696;52.134;5.500;2022-08-19T02:34:25;6.80;;;2.60;;
71042;SDS011;58696;52.134;5.500;2022-08-19T02:36:52;3.42;;;2.55;;
71042;SDS011;58696;52.134;5.500;2022-08-19T02:39:19;14.53;;;2.63;;
71042;SDS011;58696;52.134;5.500;2022-08-19T02:41:48;27.50;;;2.95;;
71042;SDS011;58696;52.134;5.500;2022-08-19T02:44:16;8.27;;;2.05;;
71042;SDS011;58696;52.134;5.500;2022-08-19T02:46:55;34.20;;;3.35;;
71042;SDS011;58696;52.134;5.500;2022-08-19T02:49:22;3.00;;;2.80;;
71042;SDS011;58696;52.134;5.500;2022-08-19T02:51:52;4.93;;;2.67;;
71042;SDS011;58696;52.134;5.500;2022-08-19T02:54:18;16.02;;;2.95;;
71042;SDS011;58696;52.134;5.500;2022-08-19T02:56:48;7.97;;;2.65;;
71042;SDS011;58696;52.134;5.500;2022-08-19T02:59:14;9.93;;;2.30;;
71042;SDS011;58696;52.134;5.500;2022-08-19T03:01:45;3.50;;;2.20;;
71042;SDS011;58696;52.134;5.500;2022-08-19T03:04:15;6.80;;;2.53;;
71042;SDS011;58696;52.134;5.500;2022-08-19T03:06:43;3.58;;;3.03;;
71042;SDS011;58696;52.134;5.500;2022-08-19T03:09:11;10.70;;;3.30;;
71042;SDS011;58696;52.134;5.500;2022-08-19T03:11:39;2.78;;;2.45;;
71042;SDS011;58696;52.134;5.500;2022-08-19T03:14:07;2.03;;;1.92;;
71042;SDS011;58696;52.134;5.500;2022-08-19T03:16:36;3.25;;;2.70;;
71042;SDS011;58696;52.134;5.500;2022-08-19T03:19:08;6.20;;;5.28;;
71042;SDS011;58696;52.134;5.500;2022-08-19T03:21:37;6.63;;;5.40;;
71042;SDS011;58696;52.134;5.500;2022-08-19T03:24:05;4.73;;;4.33;;
71042;SDS011;58696;52.134;5.500;2022-08-19T03:26:34;5.65;;;5.15;;
71042;SDS011;58696;52.134;5.500;2022-08-19T03:29:07;13.32;;;5.05;;
71042;SDS011;58696;52.134;5.500;2022-08-19T03:31:37;5.78;;;4.90;;
71042;SDS011;58696;52.134;5.500;2022-08-19T03:34:13;10.43;;;4.97;;
71042;SDS011;58696;52.134;5.500;2022-08-19T03:36:44;7.43;;;5.13;;
71042;SDS011;58696;52.134;5.500;2022-08-19T03:39:12;4.85;;;4.40;;
71042;SDS011;58696;52.134;5.500;2022-08-19T03:41:43;4.85;;;4.00;;
71042;SDS011;58696;52.134;5.500;2022-08-19T03:44:13;7.95;;;3.72;;
71042;SDS011;58696;52.134;5.500;2022-08-19T03:46:44;5.57;;;4.38;;
71042;SDS011;58696;52.134;5.500;2022-08-19T03:49:13;14.45;;;4.93;;
71042;SDS011;58696;52.134;5.500;2022-08-19T03:51:44;14.65;;;5.35;;
71042;SDS011;58696;52.134;5.500;2022-08-19T03:54:12;15.55;;;4.90;;
71042;SDS011;58696;52.134;5.500;2022-08-19T03:56:46;16.95;;;4.90;;
71042;SDS011;58696;52.134;5.500;2022-08-19T03:59:16;4.72;;;4.32;;
71042;SDS011;58696;52.134;5.500;2022-08-19T04:01:55;5.30;;;4.80;;
71042;SDS011;58696;52.134;5.500;2022-08-19T04:04:23;6.13;;;5.22;;
71042;SDS011;58696;52.134;5.500;2022-08-19T04:06:50;17.35;;;4.43;;
71042;SDS011;58696;52.134;5.500;2022-08-19T04:09:20;15.10;;;4.20;;
71042;SDS011;58696;52.134;5.500;2022-08-19T04:11:48;6.97;;;4.20;;
71042;SDS011;58696;52.134;5.500;2022-08-19T04:14:20;7.28;;;4.70;;
71042;SDS011;58696;52.134;5.500;2022-08-19T04:16:49;13.45;;;4.40;;
71042;SDS011;58696;52.134;5.500;2022-08-19T04:19:18;6.03;;;4.82;;
71042;SDS011;58696;52.134;5.500;2022-08-19T04:24:13;5.30;;;4.07;;
71042;SDS011;58696;52.134;5.500;2022-08-19T04:26:43;8.82;;;4.28;;
71042;SDS011;58696;52.134;5.500;2022-08-19T04:29:15;10.18;;;4.30;;
71042;SDS011;58696;52.134;5.500;2022-08-19T04:31:46;8.52;;;3.75;;
71042;SDS011;58696;52.134;5.500;2022-08-19T04:34:13;5.97;;;4.10;;
71042;SDS011;58696;52.134;5.500;2022-08-19T04:36:44;15.57;;;4.00;;
71042;SDS011;58696;52.134;5.500;2022-08-19T04:39:13;15.23;;;4.22;;
71042;SDS011;58696;52.134;5.500;2022-08-19T04:41:44;8.43;;;4.18;;
71042;SDS011;58696;52.134;5.500;2022-08-19T04:44:30;3.78;;;3.47;;
71042;SDS011;58696;52.134;5.500;2022-08-19T04:47:01;3.97;;;3.60;;
71042;SDS011;58696;52.134;5.500;2022-08-19T04:49:36;5.80;;;4.30;;
71042;SDS011;58696;52.134;5.500;2022-08-19T04:52:03;5.10;;;4.20;;
71042;SDS011;58696;52.134;5.500;2022-08-19T04:54:30;6.13;;;3.72;;
71042;SDS011;58696;52.134;5.500;2022-08-19T04:57:04;3.72;;;3.33;;
71042;SDS011;58696;52.134;5.500;2022-08-19T04:59:33;5.15;;;3.55;;
71042;SDS011;58696;52.134;5.500;2022-08-19T05:02:04;3.65;;;3.33;;
71042;SDS011;58696;52.134;5.500;2022-08-19T05:04:32;3.95;;;3.65;;
71042;SDS011;58696;52.134;5.500;2022-08-19T05:07:00;6.55;;;4.10;;
71042;SDS011;58696;52.134;5.500;2022-08-19T05:09:29;6.95;;;4.57;;
71042;SDS011;58696;52.134;5.500;2022-08-19T05:12:16;5.35;;;4.32;;
71042;SDS011;58696;52.134;5.500;2022-08-19T05:14:44;11.25;;;4.05;;
71042;SDS011;58696;52.134;5.500;2022-08-19T05:17:15;13.93;;;4.93;;
71042;SDS011;58696;52.134;5.500;2022-08-19T05:19:53;11.70;;;4.90;;
71042;SDS011;58696;52.134;5.500;2022-08-19T05:22:39;7.85;;;5.25;;
71042;SDS011;58696;52.134;5.500;2022-08-19T05:25:08;5.57;;;4.97;;
71042;SDS011;58696;52.134;5.500;2022-08-19T05:27:39;8.00;;;4.60;;
71042;SDS011;58696;52.134;5.500;2022-08-19T05:30:08;8.43;;;5.00;;
71042;SDS011;58696;52.134;5.500;2022-08-19T05:35:02;16.83;;;5.13;;
71042;SDS011;58696;52.134;5.500;2022-08-19T05:37:30;14.93;;;5.30;;
71042;SDS011;58696;52.134;5.500;2022-08-19T05:39:57;10.40;;;5.63;;
71042;SDS011;58696;52.134;5.500;2022-08-19T05:42:24;7.15;;;5.95;;
71042;SDS011;58696;52.134;5.500;2022-08-19T05:44:53;7.28;;;5.25;;
71042;SDS011;58696;52.134;5.500;2022-08-19T05:47:20;8.77;;;5.65;;
71042;SDS011;58696;52.134;5.500;2022-08-19T05:49:47;7.85;;;4.95;;
71042;SDS011;58696;52.134;5.500;2022-08-19T05:52:16;10.90;;;5.63;;
71042;SDS011;58696;52.134;5.500;2022-08-19T05:54:44;8.18;;;6.13;;
71042;SDS011;58696;52.134;5.500;2022-08-19T05:57:16;6.57;;;5.78;;
71042;SDS011;58696;52.134;5.500;2022-08-19T05:59:44;12.60;;;6.50;;
71042;SDS011;58696;52.134;5.500;2022-08-19T06:02:13;12.48;;;7.00;;
71042;SDS011;58696;52.134;5.500;2022-08-19T06:04:40;10.45;;;7.22;;
71042;SDS011;58696;52.134;5.500;2022-08-19T06:07:09;19.60;;;8.73;;
71042;SDS011;58696;52.134;5.500;2022-08-19T06:09:37;14.07;;;9.88;;
71042;SDS011;58696;52.134;5.500;2022-08-19T06:12:04;16.57;;;10.33;;
71042;SDS011;58696;52.134;5.500;2022-08-19T06:14:34;17.27;;;11.23;;
71042;SDS011;58696;52.134;5.500;2022-08-19T06:17:05;21.65;;;13.52;;
71042;SDS011;58696;52.134;5.500;2022-08-19T06:19:32;22.38;;;13.27;;
71042;SDS011;58696;52.134;5.500;2022-08-19T06:22:00;19.43;;;14.33;;
71042;SDS011;58696;52.134;5.500;2022-08-19T06:24:28;22.27;;;15.82;;
71042;SDS011;58696;52.134;5.500;2022-08-19T06:26:56;30.15;;;17.27;;
71042;SDS011;58696;52.134;5.500;2022-08-19T06:29:27;31.23;;;18.33;;
71042;SDS011;58696;52.134;5.500;2022-08-19T06:31:56;31.73;;;19.95;;
71042;SDS011;58696;52.134;5.500;2022-08-19T06:34:24;40.35;;;20.80;;
71042;SDS011;58696;52.134;5.500;2022-08-19T06:36:56;37.10;;;20.60;;
71042;SDS011;58696;52.134;5.500;2022-08-19T06:39:28;36.20;;;20.45;;
71042;SDS011;58696;52.134;5.500;2022-08-19T06:41:57;30.40;;;20.45;;
71042;SDS011;58696;52.134;5.500;2022-08-19T06:44:27;34.33;;;22.42;;
71042;SDS011;58696;52.134;5.500;2022-08-19T06:46:55;36.63;;;22.25;;
71042;SDS011;58696;52.134;5.500;2022-08-19T06:49:25;37.45;;;24.10;;
71042;SDS011;58696;52.134;5.500;2022-08-19T06:51:55;34.50;;;21.63;;
71042;SDS011;58696;52.134;5.500;2022-08-19T06:54:23;39.80;;;24.27;;
71042;SDS011;58696;52.134;5.500;2022-08-19T06:56:59;41.97;;;24.92;;
71042;SDS011;58696;52.134;5.500;2022-08-19T06:59:30;36.00;;;23.55;;
71042;SDS011;58696;52.134;5.500;2022-08-19T07:01:59;43.97;;;24.08;;
71042;SDS011;58696;52.134;5.500;2022-08-19T07:04:32;44.03;;;25.42;;
71042;SDS011;58696;52.134;5.500;2022-08-19T07:07:08;43.72;;;25.95;;
71042;SDS011;58696;52.134;5.500;2022-08-19T07:09:45;64.10;;;29.83;;
71042;SDS011;58696;52.134;5.500;2022-08-19T07:12:22;50.95;;;27.20;;
71042;SDS011;58696;52.134;5.500;2022-08-19T07:14:48;48.65;;;26.05;;
71042;SDS011;58696;52.134;5.500;2022-08-19T07:17:15;53.40;;;27.17;;
71042;SDS011;58696;52.134;5.500;2022-08-19T07:19:42;53.57;;;27.37;;
71042;SDS011;58696;52.134;5.500;2022-08-19T07:22:09;58.08;;;25.25;;
71042;SDS011;58696;52.134;5.500;2022-08-19T07:24:38;51.45;;;26.52;;
71042;SDS011;58696;52.134;5.500;2022-08-19T07:27:05;53.67;;;29.60;;
71042;SDS011;58696;52.134;5.500;2022-08-19T07:29:36;57.10;;;28.63;;
71042;SDS011;58696;52.134;5.500;2022-08-19T07:32:03;53.95;;;30.00;;
71042;SDS011;58696;52.134;5.500;2022-08-19T07:37:04;50.83;;;27.15;;
71042;SDS011;58696;52.134;5.500;2022-08-19T07:39:33;43.55;;;27.67;;
71042;SDS011;58696;52.134;5.500;2022-08-19T07:42:04;47.53;;;27.33;;
71042;SDS011;58696;52.134;5.500;2022-08-19T07:44:36;41.65;;;26.10;;
71042;SDS011;58696;52.134;5.500;2022-08-19T07:47:08;45.47;;;28.17;;
71042;SDS011;58696;52.134;5.500;2022-08-19T07:49:55;41.65;;;26.42;;
71042;SDS011;58696;52.134;5.500;2022-08-19T07:52:22;42.20;;;26.65;;
71042;SDS011;58696;52.134;5.500;2022-08-19T07:54:49;40.08;;;25.92;;
71042;SDS011;58696;52.134;5.500;2022-08-19T07:57:17;42.65;;;27.20;;
71042;SDS011;58696;52.134;5.500;2022-08-19T07:59:45;41.35;;;26.75;;
71042;SDS011;58696;52.134;5.500;2022-08-19T08:02:14;41.10;;;25.85;;
71042;SDS011;58696;52.134;5.500;2022-08-19T08:04:43;45.90;;;27.85;;
71042;SDS011;58696;52.134;5.500;2022-08-19T08:07:31;41.95;;;27.00;;
71042;SDS011;58696;52.134;5.500;2022-08-19T08:10:16;44.42;;;25.50;;
71042;SDS011;58696;52.134;5.500;2022-08-19T08:12:46;41.17;;;26.50;;
71042;SDS011;58696;52.134;5.500;2022-08-19T08:15:33;43.00;;;25.70;;
71042;SDS011;58696;52.134;5.500;2022-08-19T08:18:03;39.10;;;22.65;;
71042;SDS011;58696;52.134;5.500;2022-08-19T08:20:30;34.20;;;22.90;;
71042;SDS011;58696;52.134;5.500;2022-08-19T08:22:59;36.30;;;21.60;;
71042;SDS011;58696;52.134;5.500;2022-08-19T08:25:45;33.53;;;21.65;;
71042;SDS011;58696;52.134;5.500;2022-08-19T08:28:11;32.73;;;22.93;;
71042;SDS011;58696;52.134;5.500;2022-08-19T08:30:43;26.80;;;19.08;;
71042;SDS011;58696;52.134;5.500;2022-08-19T08:33:21;27.50;;;20.38;;
71042;SDS011;58696;52.134;5.500;2022-08-19T08:36:00;30.90;;;20.67;;
71042;SDS011;58696;52.134;5.500;2022-08-19T08:38:40;29.92;;;20.58;;
71042;SDS011;58696;52.134;5.500;2022-08-19T08:43:54;28.88;;;19.25;;
71042;SDS011;58696;52.134;5.500;2022-08-19T08:46:30;31.95;;;20.15;;
71042;SDS011;58696;52.134;5.500;2022-08-19T08:49:06;30.70;;;20.60;;
71042;SDS011;58696;52.134;5.500;2022-08-19T08:51:48;26.15;;;18.67;;
71042;SDS011;58696;52.134;5.500;2022-08-19T08:54:25;29.42;;;18.73;;
71042;SDS011;58696;52.134;5.500;2022-08-19T08:57:00;32.05;;;17.95;;
71042;SDS011;58696;52.134;5.500;2022-08-19T08:59:33;28.95;;;19.02;;
71042;SDS011;58696;52.134;5.500;2022-08-19T09:02:03;23.95;;;16.98;;
71042;SDS011;58696;52.134;5.500;2022-08-19T09:04:30;22.58;;;16.70;;
71042;SDS011;58696;52.134;5.500;2022-08-19T09:09:45;24.33;;;17.40;;
71042;SDS011;58696;52.134;5.500;2022-08-19T09:12:21;23.90;;;16.25;;
71042;SDS011;58696;52.134;5.500;2022-08-19T09:14:57;22.60;;;15.32;;
71042;SDS011;58696;52.134;5.500;2022-08-19T09:17:28;24.00;;;15.75;;
71042;SDS011;58696;52.134;5.500;2022-08-19T09:22:35;23.95;;;15.15;;
71042;SDS011;58696;52.134;5.500;2022-08-19T09:25:03;23.13;;;15.35;;
71042;SDS011;58696;52.134;5.500;2022-08-19T09:27:31;21.80;;;14.25;;
71042;SDS011;58696;52.134;5.500;2022-08-19T09:30:08;22.38;;;13.75;;
71042;SDS011;58696;52.134;5.500;2022-08-19T09:32:55;25.10;;;13.35;;
71042;SDS011;58696;52.134;5.500;2022-08-19T09:35:22;24.33;;;12.45;;
71042;SDS011;58696;52.134;5.500;2022-08-19T09:37:50;21.75;;;13.07;;
71042;SDS011;58696;52.134;5.500;2022-08-19T09:40:23;22.35;;;13.98;;
71042;SDS011;58696;52.134;5.500;2022-08-19T09:42:50;24.67;;;14.43;;
71042;SDS011;58696;52.134;5.500;2022-08-19T09:45:20;17.85;;;13.68;;
71042;SDS011;58696;52.134;5.500;2022-08-19T09:47:49;19.23;;;13.65;;
71042;SDS011;58696;52.134;5.500;2022-08-19T09:50:20;22.58;;;14.27;;
71042;SDS011;58696;52.134;5.500;2022-08-19T09:52:48;21.13;;;13.90;;
71042;SDS011;58696;52.134;5.500;2022-08-19T09:55:20;17.48;;;12.30;;
71042;SDS011;58696;52.134;5.500;2022-08-19T10:00:14;15.13;;;11.15;;
71042;SDS011;58696;52.134;5.500;2022-08-19T10:02:47;19.55;;;11.75;;
71042;SDS011;58696;52.134;5.500;2022-08-19T10:05:14;17.55;;;11.45;;
71042;SDS011;58696;52.134;5.500;2022-08-19T10:08:00;13.23;;;10.03;;
71042;SDS011;58696;52.134;5.500;2022-08-19T10:10:29;13.65;;;10.25;;
71042;SDS011;58696;52.134;5.500;2022-08-19T10:13:01;23.73;;;11.43;;
71042;SDS011;58696;52.134;5.500;2022-08-19T10:15:28;14.00;;;10.25;;
71042;SDS011;58696;52.134;5.500;2022-08-19T10:17:57;11.95;;;9.98;;
71042;SDS011;58696;52.134;5.500;2022-08-19T10:20:25;15.20;;;9.65;;
71042;SDS011;58696;52.134;5.500;2022-08-19T10:22:52;13.32;;;9.70;;
71042;SDS011;58696;52.134;5.500;2022-08-19T10:25:19;15.68;;;10.35;;
71042;SDS011;58696;52.134;5.500;2022-08-19T10:27:48;18.02;;;9.82;;
71042;SDS011;58696;52.134;5.500;2022-08-19T10:30:17;14.77;;;9.50;;
71042;SDS011;58696;52.134;5.500;2022-08-19T10:32:45;14.70;;;8.90;;
71042;SDS011;58696;52.134;5.500;2022-08-19T10:35:13;13.38;;;9.23;;
71042;SDS011;58696;52.134;5.500;2022-08-19T10:37:47;14.15;;;9.75;;
71042;SDS011;58696;52.134;5.500;2022-08-19T10:40:22;19.55;;;10.57;;
71042;SDS011;58696;52.134;5.500;2022-08-19T10:42:49;17.23;;;10.63;;
71042;SDS011;58696;52.134;5.500;2022-08-19T10:45:16;15.52;;;10.73;;
71042;SDS011;58696;52.134;5.500;2022-08-19T10:47:45;14.38;;;10.73;;
71042;SDS011;58696;52.134;5.500;2022-08-19T10:50:13;12.98;;;10.50;;
71042;SDS011;58696;52.134;5.500;2022-08-19T10:53:02;21.27;;;11.68;;
71042;SDS011;58696;52.134;5.500;2022-08-19T10:55:35;14.13;;;11.87;;
71042;SDS011;58696;52.134;5.500;2022-08-19T10:58:21;21.48;;;12.23;;
71042;SDS011;58696;52.134;5.500;2022-08-19T11:00:53;21.08;;;12.25;;
71042;SDS011;58696;52.134;5.500;2022-08-19T11:03:24;17.50;;;12.07;;
71042;SDS011;58696;52.134;5.500;2022-08-19T11:06:02;17.88;;;11.95;;
71042;SDS011;58696;52.134;5.500;2022-08-19T11:08:30;18.80;;;11.38;;
71042;SDS011;58696;52.134;5.500;2022-08-19T11:11:01;19.67;;;12.82;;
71042;SDS011;58696;52.134;5.500;2022-08-19T11:13:30;17.67;;;13.52;;
71042;SDS011;58696;52.134;5.500;2022-08-19T11:16:00;16.42;;;12.88;;
71042;SDS011;58696;52.134;5.500;2022-08-19T11:18:40;22.23;;;13.23;;
71042;SDS011;58696;52.134;5.500;2022-08-19T11:23:43;18.27;;;13.82;;
71042;SDS011;58696;52.134;5.500;2022-08-19T11:26:10;18.67;;;15.60;;
71042;SDS011;58696;52.134;5.500;2022-08-19T11:28:40;24.13;;;16.42;;
71042;SDS011;58696;52.134;5.500;2022-08-19T11:33:38;21.45;;;16.70;;
71042;SDS011;58696;52.134;5.500;2022-08-19T11:36:05;21.75;;;16.90;;
71042;SDS011;58696;52.134;5.500;2022-08-19T11:38:33;24.20;;;17.45;;
71042;SDS011;58696;52.134;5.500;2022-08-19T11:41:04;22.27;;;16.65;;
71042;SDS011;58696;52.134;5.500;2022-08-19T11:43:34;23.65;;;16.85;;
71042;SDS011;58696;52.134;5.500;2022-08-19T11:46:04;23.80;;;18.38;;
71042;SDS011;58696;52.134;5.500;2022-08-19T11:48:35;20.67;;;17.42;;
71042;SDS011;58696;52.134;5.500;2022-08-19T11:53:32;23.15;;;17.00;;
71042;SDS011;58696;52.134;5.500;2022-08-19T11:56:02;23.50;;;17.00;;
71042;SDS011;58696;52.134;5.500;2022-08-19T11:58:31;25.95;;;17.10;;
71042;SDS011;58696;52.134;5.500;2022-08-19T12:00:59;25.70;;;16.67;;
71042;SDS011;58696;52.134;5.500;2022-08-19T12:03:26;20.40;;;16.67;;
71042;SDS011;58696;52.134;5.500;2022-08-19T12:05:54;25.00;;;16.58;;
71042;SDS011;58696;52.134;5.500;2022-08-19T12:08:23;21.55;;;16.88;;
71042;SDS011;58696;52.134;5.500;2022-08-19T12:10:49;28.33;;;18.15;;
71042;SDS011;58696;52.134;5.500;2022-08-19T12:13:17;31.02;;;20.13;;
71042;SDS011;58696;52.134;5.500;2022-08-19T12:15:45;30.35;;;19.30;;
71042;SDS011;58696;52.134;5.500;2022-08-19T12:18:13;28.95;;;18.20;;
71042;SDS011;58696;52.134;5.500;2022-08-19T12:20:41;28.88;;;17.25;;
71042;SDS011;58696;52.134;5.500;2022-08-19T12:23:09;26.45;;;18.05;;
71042;SDS011;58696;52.134;5.500;2022-08-19T12:25:37;25.33;;;18.02;;
71042;SDS011;58696;52.134;5.500;2022-08-19T12:28:21;22.08;;;17.50;;
71042;SDS011;58696;52.134;5.500;2022-08-19T12:30:51;26.80;;;18.67;;
71042;SDS011;58696;52.134;5.500;2022-08-19T12:33:20;26.55;;;18.05;;
71042;SDS011;58696;52.134;5.500;2022-08-19T12:35:50;28.63;;;18.60;;
71042;SDS011;58696;52.134;5.500;2022-08-19T12:38:17;31.02;;;19.05;;
71042;SDS011;58696;52.134;5.500;2022-08-19T12:40:45;29.88;;;19.63;;
71042;SDS011;58696;52.134;5.500;2022-08-19T12:43:13;24.08;;;17.92;;
71042;SDS011;58696;52.134;5.500;2022-08-19T12:45:44;27.50;;;18.90;;
71042;SDS011;58696;52.134;5.500;2022-08-19T12:48:11;28.15;;;18.33;;
71042;SDS011;58696;52.134;5.500;2022-08-19T12:50:58;27.48;;;19.48;;
71042;SDS011;58696;52.134;5.500;2022-08-19T12:53:28;24.02;;;17.30;;
71042;SDS011;58696;52.134;5.500;2022-08-19T12:55:57;23.85;;;16.60;;
71042;SDS011;58696;52.134;5.500;2022-08-19T12:58:26;24.67;;;15.48;;
71042;SDS011;58696;52.134;5.500;2022-08-19T13:03:19;26.73;;;15.32;;
71042;SDS011;58696;52.134;5.500;2022-08-19T13:05:51;21.63;;;15.05;;
71042;SDS011;58696;52.134;5.500;2022-08-19T13:08:18;20.58;;;15.63;;
71042;SDS011;58696;52.134;5.500;2022-08-19T13:10:45;19.75;;;13.00;;
71042;SDS011;58696;52.134;5.500;2022-08-19T13:13:14;19.35;;;13.48;;
71042;SDS011;58696;52.134;5.500;2022-08-19T13:15:41;14.32;;;12.80;;
71042;SDS011;58696;52.134;5.500;2022-08-19T13:18:09;17.20;;;12.85;;
71042;SDS011;58696;52.134;5.500;2022-08-19T13:20:39;17.75;;;12.85;;
71042;SDS011;58696;52.134;5.500;2022-08-19T13:23:26;17.30;;;13.38;;
71042;SDS011;58696;52.134;5.500;2022-08-19T13:25:59;21.98;;;13.82;;
71042;SDS011;58696;52.134;5.500;2022-08-19T13:28:27;15.50;;;12.18;;
71042;SDS011;58696;52.134;5.500;2022-08-19T13:31:15;16.98;;;13.30;;
71042;SDS011;58696;52.134;5.500;2022-08-19T13:34:04;19.05;;;13.13;;
71042;SDS011;58696;52.134;5.500;2022-08-19T13:36:34;17.15;;;13.70;;
71042;SDS011;58696;52.134;5.500;2022-08-19T13:39:02;19.23;;;13.57;;
71042;SDS011;58696;52.134;5.500;2022-08-19T13:41:30;19.40;;;13.85;;
71042;SDS011;58696;52.134;5.500;2022-08-19T13:43:57;20.38;;;14.35;;
71042;SDS011;58696;52.134;5.500;2022-08-19T13:46:23;23.45;;;14.63;;
71042;SDS011;58696;52.134;5.500;2022-08-19T13:48:50;23.33;;;16.13;;
71042;SDS011;58696;52.134;5.500;2022-08-19T13:51:21;20.88;;;15.10;;
71042;SDS011;58696;52.134;5.500;2022-08-19T13:53:48;18.88;;;14.98;;
71042;SDS011;58696;52.134;5.500;2022-08-19T13:56:17;18.67;;;13.43;;
71042;SDS011;58696;52.134;5.500;2022-08-19T13:58:50;19.15;;;14.07;;
71042;SDS011;58696;52.134;5.500;2022-08-19T14:01:21;17.90;;;14.20;;
71042;SDS011;58696;52.134;5.500;2022-08-19T14:03:49;21.17;;;14.65;;
71042;SDS011;58696;52.134;5.500;2022-08-19T14:06:16;19.80;;;14.40;;
71042;SDS011;58696;52.134;5.500;2022-08-19T14:08:43;18.53;;;12.87;;
71042;SDS011;58696;52.134;5.500;2022-08-19T14:11:12;22.38;;;14.95;;
71042;SDS011;58696;52.134;5.500;2022-08-19T14:13:39;16.90;;;13.10;;
71042;SDS011;58696;52.134;5.500;2022-08-19T14:16:06;17.90;;;12.70;;
71042;SDS011;58696;52.134;5.500;2022-08-19T14:18:37;18.58;;;9.98;;
71042;SDS011;58696;52.134;5.500;2022-08-19T14:21:07;8.02;;;7.22;;
71042;SDS011;58696;52.134;5.500;2022-08-19T14:26:03;6.75;;;3.60;;
71042;SDS011;58696;52.134;5.500;2022-08-19T14:28:31;7.07;;;4.10;;
71042;SDS011;58696;52.134;5.500;2022-08-19T14:30:58;5.93;;;4.00;;
71042;SDS011;58696;52.134;5.500;2022-08-19T14:33:24;7.87;;;3.60;;
71042;SDS011;58696;52.134;5.500;2022-08-19T14:35:52;7.13;;;4.10;;
71042;SDS011;58696;52.134;5.500;2022-08-19T14:38:22;5.32;;;3.97;;
71042;SDS011;58696;52.134;5.500;2022-08-19T14:41:16;4.90;;;4.47;;
71042;SDS011;58696;52.134;5.500;2022-08-19T14:43:47;8.55;;;4.65;;
71042;SDS011;58696;52.134;5.500;2022-08-19T14:46:17;6.95;;;5.55;;
71042;SDS011;58696;52.134;5.500;2022-08-19T14:48:46;10.60;;;6.75;;
71042;SDS011;58696;52.134;5.500;2022-08-19T14:51:16;8.02;;;6.70;;
71042;SDS011;58696;52.134;5.500;2022-08-19T14:53:44;11.15;;;6.60;;
71042;SDS011;58696;52.134;5.500;2022-08-19T14:56:12;10.35;;;7.25;;
71042;SDS011;58696;52.134;5.500;2022-08-19T14:58:41;8.55;;;7.32;;
71042;SDS011;58696;52.134;5.500;2022-08-19T15:01:09;9.98;;;7.07;;
71042;SDS011;58696;52.134;5.500;2022-08-19T15:03:37;11.63;;;9.77;;
71042;SDS011;58696;52.134;5.500;2022-08-19T15:06:07;10.63;;;6.82;;
71042;SDS011;58696;52.134;5.500;2022-08-19T15:08:35;10.25;;;7.80;;
71042;SDS011;58696;52.134;5.500;2022-08-19T15:11:09;8.25;;;7.18;;
71042;SDS011;58696;52.134;5.500;2022-08-19T15:13:37;9.40;;;7.43;;
71042;SDS011;58696;52.134;5.500;2022-08-19T15:16:07;8.52;;;7.50;;
71042;SDS011;58696;52.134;5.500;2022-08-19T15:18:43;9.20;;;6.88;;
71042;SDS011;58696;52.134;5.500;2022-08-19T15:21:14;9.00;;;7.15;;
71042;SDS011;58696;52.134;5.500;2022-08-19T15:23:52;7.35;;;6.40;;